Terminal Aerodrome Forecast
Issued by NWS Key West, FL

Home | Current Version | Previous Version | Text Only | Print | Product List | Glossary On
Versions: 1 2 3 4 5 6 7 8 9 10 11 12 13 14 15 16 17 18 19 20 21 22 23 24 25 26 27 28 29 30 31 32 33 34 35 36 37 38 39 40 41 42 43 44 45 46 47 48 49 50
000
FTUS42 KKEY 240535
TAFEYW
TAF
KEYW 240535Z 2406/2506 16010KT P6SM VCSH SCT020 SCT030 BKN100
     FM240900 18006KT P6SM VCSH SCT020 SCT030 BKN100
      TEMPO 2410/2412 VRB10G20KT 3SM TSRA BR BKN015CB BKN030 OVC050
     FM241600 22008KT P6SM VCTS SCT020CB SCT030 BKN100 PROB30
      2416/2422 VRB10G20KT 2SM TSRA BR BKN015CB BKN030 OVC050=

USA.gov is the U.S. government's official web portal to all federal, state and local government web resources and services.